Time,TemperatureF,DewpointF,PressureIn,WindDirection,WindDirectionDegrees,WindSpeedMPH,WindSpeedGustMPH,Humidity,HourlyPrecipIn,Conditions,Clouds,dailyrainin,SoftwareType,DateUTC
2013-09-14 00:08:00,55.2,54.9,29.80,ESE,112,0.0,-999.0,99,-99.99,,,0.00,Acu-Link.com,2013-09-14 04:08:00,
2013-09-14 00:23:00,55.2,54.9,29.81,ENE,67,0.0,-999.0,99,-99.99,,,0.00,Acu-Link.com,2013-09-14 04:23:00,
2013-09-14 00:38:00,55.0,54.7,29.81,East,90,0.0,-999.0,99,-99.99,,,0.00,Acu-Link.com,2013-09-14 04:38:00,
2013-09-14 00:53:00,54.3,54.0,29.81,East,90,0.0,-999.0,99,-99.99,,,0.00,Acu-Link.com,2013-09-14 04:53:00,
2013-09-14 01:08:00,53.8,53.5,29.81,East,90,0.0,-999.0,99,-99.99,,,0.00,Acu-Link.com,2013-09-14 05:08:00,
2013-09-14 01:23:00,53.8,53.5,29.81,NNE,22,0.0,-999.0,99,-99.99,,,0.00,Acu-Link.com,2013-09-14 05:23:00,
2013-09-14 01:38:00,53.4,53.1,29.81,South,180,0.0,-999.0,99,-99.99,,,0.00,Acu-Link.com,2013-09-14 05:38:00,
2013-09-14 01:53:00,53.1,52.8,29.81,ESE,112,0.0,-999.0,99,-99.99,,,0.00,Acu-Link.com,2013-09-14 05:53:00,
2013-09-14 02:08:00,52.5,52.2,29.81,SSW,202,0.0,-999.0,99,-99.99,,,0.00,Acu-Link.com,2013-09-14 06:08:00,
2013-09-14 02:24:00,52.2,51.9,29.81,South,180,0.0,-999.0,99,-99.99,,,0.00,Acu-Link.com,2013-09-14 06:24:00,
2013-09-14 02:39:00,51.6,51.3,29.81,WNW,292,0.0,-999.0,99,-99.99,,,0.00,Acu-Link.com,2013-09-14 06:39:00,
2013-09-14 02:54:00,51.1,50.8,29.81,NE,45,0.0,-999.0,99,-99.99,,,0.00,Acu-Link.com,2013-09-14 06:54:00,
2013-09-14 03:09:00,50.9,50.6,29.81,ENE,67,0.0,-999.0,99,-99.99,,,0.00,Acu-Link.com,2013-09-14 07:09:00,
2013-09-14 03:24:00,50.7,50.4,29.81,East,90,0.0,-999.0,99,-99.99,,,0.00,Acu-Link.com,2013-09-14 07:24:00,
2013-09-14 03:39:00,50.7,50.4,29.80,NW,315,0.0,-999.0,99,-99.99,,,0.00,Acu-Link.com,2013-09-14 07:39:00,
2013-09-14 03:54:00,50.5,50.2,29.81,NW,315,0.0,-999.0,99,-99.99,,,0.00,Acu-Link.com,2013-09-14 07:54:00,
2013-09-14 04:10:00,50.4,50.1,29.81,ESE,112,0.0,-999.0,99,-99.99,,,0.00,Acu-Link.com,2013-09-14 08:10:00,
2013-09-14 04:26:00,50.4,50.1,29.80,NW,315,0.0,-999.0,99,-99.99,,,0.00,Acu-Link.com,2013-09-14 08:26:00,
2013-09-14 04:41:00,50.4,50.1,29.80,West,270,0.0,-999.0,99,-99.99,,,0.00,Acu-Link.com,2013-09-14 08:41:00,
2013-09-14 04:56:00,50.2,49.9,29.80,NNW,337,0.0,-999.0,99,-99.99,,,0.00,Acu-Link.com,2013-09-14 08:56:00,
2013-09-14 05:11:00,50.0,49.7,29.80,ENE,67,0.0,-999.0,99,-99.99,,,0.00,Acu-Link.com,2013-09-14 09:11:00,
2013-09-14 05:26:00,49.5,49.2,29.81,West,270,0.0,-999.0,99,-99.99,,,0.00,Acu-Link.com,2013-09-14 09:26:00,
2013-09-14 05:42:00,49.3,49.0,29.80,East,90,0.0,-999.0,99,-99.99,,,0.00,Acu-Link.com,2013-09-14 09:42:00,
2013-09-14 05:57:00,49.3,49.0,29.81,East,90,0.0,-999.0,99,-99.99,,,0.00,Acu-Link.com,2013-09-14 09:57:00,
2013-09-14 06:12:00,49.1,48.8,29.82,East,90,0.0,-999.0,99,-99.99,,,0.00,Acu-Link.com,2013-09-14 10:12:00,
2013-09-14 06:27:00,48.7,48.4,29.82,ENE,67,0.0,-999.0,99,-99.99,,,0.00,Acu-Link.com,2013-09-14 10:27:00,
2013-09-14 06:42:00,48.0,47.7,29.83,ENE,67,0.0,-999.0,99,-99.99,,,0.00,Acu-Link.com,2013-09-14 10:42:00,
2013-09-14 06:57:00,48.4,48.1,29.83,NE,45,0.0,-999.0,99,-99.99,,,0.00,Acu-Link.com,2013-09-14 10:57:00,
2013-09-14 07:12:00,48.2,47.9,29.83,East,90,0.0,-999.0,99,-99.99,,,0.00,Acu-Link.com,2013-09-14 11:12:00,
2013-09-14 07:27:00,47.8,47.5,29.84,ESE,112,0.0,-999.0,99,-99.99,,,0.00,Acu-Link.com,2013-09-14 11:27:00,
2013-09-14 07:42:00,47.5,47.2,29.85,ESE,112,0.0,-999.0,99,-99.99,,,0.00,Acu-Link.com,2013-09-14 11:42:00,
2013-09-14 07:57:00,47.7,47.4,29.86,NE,45,0.0,-999.0,99,-99.99,,,0.00,Acu-Link.com,2013-09-14 11:57:00,
2013-09-14 08:13:00,48.9,48.6,29.86,NNE,22,0.0,-999.0,99,-99.99,,,0.00,Acu-Link.com,2013-09-14 12:13:00,
2013-09-14 08:28:00,50.5,50.2,29.87,East,90,0.0,-999.0,99,-99.99,,,0.00,Acu-Link.com,2013-09-14 12:28:00,
2013-09-14 08:43:00,54.5,54.2,29.87,East,90,1.1,-999.0,99,-99.99,,,0.00,Acu-Link.com,2013-09-14 12:43:00,
2013-09-14 08:58:00,58.8,56.2,29.87,West,270,1.7,-999.0,91,-99.99,,,0.00,Acu-Link.com,2013-09-14 12:58:00,
2013-09-14 09:13:00,61.3,56.7,29.88,NNW,337,3.2,-999.0,85,-99.99,,,0.00,Acu-Link.com,2013-09-14 13:13:00,
2013-09-14 09:28:00,63.3,56.7,29.88,SSE,157,1.7,-999.0,79,-99.99,,,0.00,Acu-Link.com,2013-09-14 13:28:00,
2013-09-14 09:43:00,65.5,57.0,29.89,NW,315,4.2,-999.0,74,-99.99,,,0.00,Acu-Link.com,2013-09-14 13:43:00,
2013-09-14 09:58:00,66.7,57.0,29.89,WNW,292,4.7,-999.0,71,-99.99,,,0.00,Acu-Link.com,2013-09-14 13:58:00,
2013-09-14 10:13:00,63.3,56.7,29.89,NNE,22,1.7,-999.0,79,-99.99,,,0.00,Acu-Link.com,2013-09-14 14:13:00,
2013-09-14 10:29:00,64.9,57.5,29.89,NW,315,2.7,-999.0,77,-99.99,,,0.00,Acu-Link.com,2013-09-14 14:29:00,
2013-09-14 10:44:00,66.2,58.0,29.90,NW,315,3.7,-999.0,75,-99.99,,,0.00,Acu-Link.com,2013-09-14 14:44:00,
2013-09-14 10:59:00,66.6,57.3,29.89,NNW,337,3.7,-999.0,72,-99.99,,,0.00,Acu-Link.com,2013-09-14 14:59:00,
2013-09-14 11:14:00,67.8,58.4,29.89,West,270,2.7,-999.0,72,-99.99,,,0.00,Acu-Link.com,2013-09-14 15:14:00,
2013-09-14 11:29:00,69.1,57.7,29.89,WNW,292,3.2,-999.0,67,-99.99,,,0.00,Acu-Link.com,2013-09-14 15:29:00,
2013-09-14 11:44:00,69.8,58.3,29.89,West,270,4.7,-999.0,67,-99.99,,,0.00,Acu-Link.com,2013-09-14 15:44:00,
2013-09-14 11:59:00,71.1,58.3,29.89,West,270,3.7,-999.0,64,-99.99,,,0.00,Acu-Link.com,2013-09-14 15:59:00,
2013-09-14 12:14:00,72.1,60.1,29.89,East,90,5.8,-999.0,66,-99.99,,,0.00,Acu-Link.com,2013-09-14 16:14:00,
2013-09-14 12:29:00,73.2,60.3,29.88,West,270,3.2,-999.0,64,-99.99,,,0.00,Acu-Link.com,2013-09-14 16:29:00,
2013-09-14 12:45:00,74.1,58.8,29.88,NNW,337,4.7,-999.0,59,-99.99,,,0.00,Acu-Link.com,2013-09-14 16:45:00,
2013-09-14 13:00:00,74.5,58.7,29.88,East,90,4.2,-999.0,58,-99.99,,,0.00,Acu-Link.com,2013-09-14 17:00:00,
2013-09-14 13:15:00,74.8,58.5,29.87,WSW,247,3.7,-999.0,57,-99.99,,,0.00,Acu-Link.com,2013-09-14 17:15:00,
2013-09-14 13:30:00,75.6,57.2,29.87,NE,45,4.2,-999.0,53,-99.99,,,0.00,Acu-Link.com,2013-09-14 17:30:00,
2013-09-14 13:45:00,76.1,58.2,29.87,East,90,3.7,-999.0,54,-99.99,,,0.00,Acu-Link.com,2013-09-14 17:45:00,
2013-09-14 14:00:00,76.3,59.4,29.86,ENE,67,3.2,-999.0,56,-99.99,,,0.00,Acu-Link.com,2013-09-14 18:00:00,
2013-09-14 14:15:00,76.6,57.6,29.86,NW,315,4.7,-999.0,52,-99.99,,,0.00,Acu-Link.com,2013-09-14 18:15:00,
2013-09-14 14:30:00,77.7,60.2,29.86,ENE,67,2.2,-999.0,55,-99.99,,,0.00,Acu-Link.com,2013-09-14 18:30:00,
2013-09-14 14:45:00,77.9,58.3,29.85,West,270,2.7,-999.0,51,-99.99,,,0.00,Acu-Link.com,2013-09-14 18:45:00,
2013-09-14 15:01:00,78.1,58.5,29.85,North,0,2.7,-999.0,51,-99.99,,,0.00,Acu-Link.com,2013-09-14 19:01:00,
2013-09-14 15:16:00,79.2,60.6,29.85,ENE,67,4.2,-999.0,53,-99.99,,,0.00,Acu-Link.com,2013-09-14 19:16:00,
2013-09-14 15:31:00,79.2,59.5,29.84,NNE,22,0.0,-999.0,51,-99.99,,,0.00,Acu-Link.com,2013-09-14 19:31:00,
2013-09-14 15:46:00,79.9,61.2,29.84,NE,45,3.2,-999.0,53,-99.99,,,0.00,Acu-Link.com,2013-09-14 19:46:00,
2013-09-14 16:01:00,79.5,58.6,29.84,SE,135,0.0,-999.0,49,-99.99,,,0.00,Acu-Link.com,2013-09-14 20:01:00,
2013-09-14 16:16:00,79.5,60.3,29.84,SSE,157,2.2,-999.0,52,-99.99,,,0.00,Acu-Link.com,2013-09-14 20:16:00,
2013-09-14 16:31:00,80.2,59.3,29.84,West,270,3.7,-999.0,49,-99.99,,,0.00,Acu-Link.com,2013-09-14 20:31:00,
2013-09-14 16:46:00,79.0,58.8,29.84,NNE,22,2.2,-999.0,50,-99.99,,,0.00,Acu-Link.com,2013-09-14 20:46:00,
2013-09-14 17:01:00,79.3,59.6,29.84,NNE,22,1.7,-999.0,51,-99.99,,,0.00,Acu-Link.com,2013-09-14 21:01:00,
2013-09-14 17:17:00,80.4,59.5,29.84,SSE,157,0.0,-999.0,49,-99.99,,,0.00,Acu-Link.com,2013-09-14 21:17:00,
2013-09-14 17:32:00,78.6,58.4,29.84,NE,45,1.7,-999.0,50,-99.99,,,0.00,Acu-Link.com,2013-09-14 21:32:00,
2013-09-14 17:47:00,78.4,60.4,29.85,ENE,67,1.7,-999.0,54,-99.99,,,0.00,Acu-Link.com,2013-09-14 21:47:00,
2013-09-14 18:02:00,77.4,59.4,29.85,NE,45,0.0,-999.0,54,-99.99,,,0.00,Acu-Link.com,2013-09-14 22:02:00,
2013-09-14 18:17:00,75.4,61.9,29.85,NE,45,2.7,-999.0,63,-99.99,,,0.00,Acu-Link.com,2013-09-14 22:17:00,
2013-09-14 18:32:00,78.6,60.0,29.85,NE,45,0.0,-999.0,53,-99.99,,,0.00,Acu-Link.com,2013-09-14 22:32:00,
2013-09-14 18:47:00,77.4,61.4,29.85,East,90,0.0,-999.0,58,-99.99,,,0.00,Acu-Link.com,2013-09-14 22:47:00,
2013-09-14 19:03:00,73.6,62.8,29.85,East,90,0.0,-999.0,69,-99.99,,,0.00,Acu-Link.com,2013-09-14 23:03:00,
2013-09-14 19:18:00,70.7,63.5,29.86,East,90,0.0,-999.0,78,-99.99,,,0.00,Acu-Link.com,2013-09-14 23:18:00,
2013-09-14 19:33:00,68.9,63.5,29.85,East,90,0.0,-999.0,83,-99.99,,,0.00,Acu-Link.com,2013-09-14 23:33:00,
2013-09-14 19:48:00,66.9,63.2,29.86,East,90,0.0,-999.0,88,-99.99,,,0.00,Acu-Link.com,2013-09-14 23:48:00,
2013-09-14 20:03:00,65.1,61.8,29.86,East,90,0.0,-999.0,89,-99.99,,,0.00,Acu-Link.com,2013-09-15 00:03:00,
2013-09-14 20:18:00,63.5,61.7,29.87,East,90,0.0,-999.0,94,-99.99,,,0.00,Acu-Link.com,2013-09-15 00:18:00,
2013-09-14 20:34:00,62.4,61.5,29.87,East,90,0.0,-999.0,97,-99.99,,,0.00,Acu-Link.com,2013-09-15 00:34:00,
2013-09-14 20:49:00,61.3,60.4,29.87,East,90,0.0,-999.0,97,-99.99,,,0.00,Acu-Link.com,2013-09-15 00:49:00,
2013-09-14 21:04:00,60.4,60.1,29.88,East,90,0.0,-999.0,99,-99.99,,,0.00,Acu-Link.com,2013-09-15 01:04:00,
2013-09-14 21:19:00,59.7,59.4,29.89,East,90,0.0,-999.0,99,-99.99,,,0.00,Acu-Link.com,2013-09-15 01:19:00,
2013-09-14 21:34:00,59.0,58.7,29.89,East,90,0.0,-999.0,99,-99.99,,,0.00,Acu-Link.com,2013-09-15 01:34:00,
2013-09-14 21:49:00,58.6,58.3,29.89,East,90,0.0,-999.0,99,-99.99,,,0.00,Acu-Link.com,2013-09-15 01:49:00,
2013-09-14 22:04:00,58.1,57.8,29.89,ENE,67,0.0,-999.0,99,-99.99,,,0.00,Acu-Link.com,2013-09-15 02:04:00,
2013-09-14 22:19:00,57.7,57.4,29.89,East,90,0.0,-999.0,99,-99.99,,,0.00,Acu-Link.com,2013-09-15 02:19:00,
2013-09-14 22:34:00,57.0,56.7,29.90,East,90,0.0,-999.0,99,-99.99,,,0.00,Acu-Link.com,2013-09-15 02:34:00,
2013-09-14 22:50:00,56.7,56.4,29.90,East,90,0.0,-999.0,99,-99.99,,,0.00,Acu-Link.com,2013-09-15 02:50:00,
2013-09-14 23:05:00,56.3,56.0,29.90,East,90,0.0,-999.0,99,-99.99,,,0.00,Acu-Link.com,2013-09-15 03:05:00,
2013-09-14 23:20:00,56.1,55.8,29.90,ESE,112,0.0,-999.0,99,-99.99,,,0.00,Acu-Link.com,2013-09-15 03:20:00,
2013-09-14 23:35:00,55.8,55.5,29.91,ESE,112,0.0,-999.0,99,-99.99,,,0.00,Acu-Link.com,2013-09-15 03:35:00,
2013-09-14 23:50:00,55.8,55.5,29.91,ESE,112,0.0,-999.0,99,-99.99,,,0.00,Acu-Link.com,2013-09-15 03:50:00,